createdAt,value
2023-01-11T00:00:49.891Z,1.30
2023-01-11T00:03:17.241Z,1.20
2023-01-11T00:05:44.161Z,1.63
2023-01-11T00:08:11.396Z,1.27
2023-01-11T00:10:37.803Z,1.70
2023-01-11T00:13:04.342Z,1.43
2023-01-11T00:15:30.838Z,1.67
2023-01-11T00:17:57.773Z,1.17
2023-01-11T00:20:24.674Z,1.50
2023-01-11T00:22:51.100Z,1.37
2023-01-11T00:25:17.845Z,1.00
2023-01-11T00:27:44.334Z,1.50
2023-01-11T00:30:11.441Z,1.50
2023-01-11T00:32:37.872Z,1.77
2023-01-11T00:35:04.543Z,1.20
2023-01-11T00:37:30.984Z,1.70
2023-01-11T00:39:57.418Z,1.40
2023-01-11T00:42:42.440Z,1.93
2023-01-11T00:45:27.563Z,1.40
2023-01-11T00:47:57.033Z,1.30
2023-01-11T00:50:28.873Z,1.40
2023-01-11T00:52:55.403Z,1.40
2023-01-11T00:55:21.881Z,1.33
2023-01-11T00:57:48.561Z,1.40
2023-01-11T01:00:15.277Z,1.47
2023-01-11T01:02:41.840Z,1.43
2023-01-11T01:05:08.528Z,1.20
2023-01-11T01:07:34.983Z,1.20
2023-01-11T01:10:01.440Z,1.40
2023-01-11T01:12:46.441Z,0.97
2023-01-11T01:15:12.835Z,1.57
2023-01-11T01:17:39.371Z,1.47
2023-01-11T01:20:06.546Z,1.27
2023-01-11T01:22:32.970Z,1.03
2023-01-11T01:24:59.402Z,1.00
2023-01-11T01:27:26.395Z,1.00
2023-01-11T01:29:52.778Z,1.20
2023-01-11T01:32:19.168Z,1.47
2023-01-11T01:34:45.570Z,1.30
2023-01-11T01:37:11.994Z,1.13
2023-01-11T01:39:38.431Z,1.30
2023-01-11T01:42:06.004Z,1.70
2023-01-11T01:44:52.927Z,1.30
2023-01-11T01:47:41.357Z,1.50
2023-01-11T01:50:29.919Z,1.20
2023-01-11T01:53:00.605Z,1.30
2023-01-11T01:55:31.471Z,1.23
2023-01-11T01:57:58.675Z,1.20
2023-01-11T02:00:25.136Z,1.37
2023-01-11T02:02:51.966Z,1.40
2023-01-11T02:05:18.613Z,0.90
2023-01-11T02:07:46.299Z,1.20
2023-01-11T02:10:18.895Z,1.40
2023-01-11T02:13:05.450Z,1.50
2023-01-11T02:15:32.011Z,1.10
2023-01-11T02:17:58.448Z,1.60
2023-01-11T02:20:44.992Z,1.40
2023-01-11T02:23:17.236Z,1.20
2023-01-11T02:26:08.909Z,1.40
2023-01-11T02:28:45.287Z,1.20
2023-01-11T02:31:19.761Z,1.37
2023-01-11T02:34:07.934Z,1.47
2023-01-11T02:36:49.947Z,1.37
2023-01-11T02:39:22.406Z,1.20
2023-01-11T02:42:30.376Z,1.00
2023-01-11T02:45:18.499Z,1.40
2023-01-11T02:47:57.680Z,1.10
2023-01-11T02:50:44.108Z,1.23
2023-01-11T02:53:28.091Z,1.87
2023-01-11T02:55:57.441Z,1.20
2023-01-11T02:58:25.706Z,1.50
2023-01-11T03:00:55.618Z,1.40
2023-01-11T03:03:24.830Z,1.07
2023-01-11T03:05:55.062Z,1.60
2023-01-11T03:08:41.346Z,1.53
2023-01-11T03:11:11.675Z,1.20
2023-01-11T03:13:53.873Z,1.13
2023-01-11T03:16:27.981Z,1.40
2023-01-11T03:19:13.441Z,1.20
2023-01-11T03:22:00.923Z,1.20
2023-01-11T03:24:42.495Z,1.60
2023-01-11T03:27:20.368Z,1.40
2023-01-11T03:29:54.722Z,1.50
2023-01-11T03:32:43.461Z,1.30
2023-01-11T03:35:30.087Z,1.07
2023-01-11T03:38:06.676Z,1.33
2023-01-11T03:40:35.227Z,1.07
2023-01-11T03:43:13.729Z,1.13
2023-01-11T03:45:40.076Z,0.90
2023-01-11T03:48:12.124Z,1.17
2023-01-11T03:50:39.267Z,1.17
2023-01-11T03:53:07.293Z,1.07
2023-01-11T03:55:38.158Z,0.90
2023-01-11T03:58:04.623Z,1.20
2023-01-11T04:00:31.746Z,1.23
2023-01-11T04:03:00.342Z,0.97
2023-01-11T04:05:26.807Z,1.10
2023-01-11T04:07:53.827Z,1.02
2023-01-11T04:10:20.427Z,0.98
2023-01-11T04:12:49.243Z,1.07
2023-01-11T04:15:16.607Z,0.82
2023-01-11T04:17:43.183Z,0.98
2023-01-11T04:20:10.408Z,0.93
2023-01-11T04:22:36.852Z,1.00
2023-01-11T04:25:03.768Z,1.03
2023-01-11T04:27:30.182Z,1.00
2023-01-11T04:29:56.586Z,1.20
2023-01-11T04:32:23.095Z,1.10
2023-01-11T04:34:50.503Z,0.85
2023-01-11T04:37:16.956Z,0.93
2023-01-11T04:39:43.400Z,1.20
2023-01-11T04:42:21.086Z,1.10
2023-01-11T04:44:49.152Z,0.90
2023-01-11T04:47:16.320Z,1.00
2023-01-11T04:49:42.850Z,1.10
2023-01-11T04:52:13.860Z,1.10
2023-01-11T04:54:40.432Z,1.30
2023-01-11T04:57:07.475Z,1.05
2023-01-11T04:59:33.887Z,1.10
2023-01-11T05:02:00.376Z,1.47
2023-01-11T05:04:26.815Z,1.15
2023-01-11T05:06:53.428Z,0.77
2023-01-11T05:09:20.042Z,1.10
2023-01-11T05:11:46.471Z,1.38
2023-01-11T05:14:13.787Z,1.10
2023-01-11T05:16:40.300Z,0.88
2023-01-11T05:19:06.740Z,1.23
2023-01-11T05:21:35.582Z,0.80
2023-01-11T05:24:03.947Z,1.10
2023-01-11T05:26:34.605Z,1.02
2023-01-11T05:29:02.908Z,1.20
2023-01-11T05:31:31.214Z,1.15
2023-01-11T05:33:58.484Z,1.40
2023-01-11T05:36:26.201Z,1.10
2023-01-11T05:38:54.061Z,1.10
2023-01-11T05:41:21.796Z,0.93
2023-01-11T05:44:08.515Z,1.30
2023-01-11T05:46:36.376Z,1.40
2023-01-11T05:49:03.510Z,1.10
2023-01-11T05:51:30.843Z,1.23
2023-01-11T05:53:57.686Z,1.10
2023-01-11T05:56:24.124Z,1.42
2023-01-11T05:58:51.200Z,1.30
2023-01-11T06:01:19.149Z,1.08
2023-01-11T06:03:46.108Z,1.40
2023-01-11T06:06:13.168Z,1.50
2023-01-11T06:08:39.568Z,1.10
2023-01-11T06:11:06.047Z,1.30
2023-01-11T06:13:33.843Z,1.40
2023-01-11T06:16:11.862Z,1.38
2023-01-11T06:18:40.965Z,1.23
2023-01-11T06:21:08.503Z,1.25
2023-01-11T06:23:36.900Z,0.95
2023-01-11T06:26:05.391Z,1.25
2023-01-11T06:28:31.865Z,1.02
2023-01-11T06:30:59.291Z,1.20
2023-01-11T06:33:27.116Z,0.95
2023-01-11T06:35:54.053Z,1.75
2023-01-11T06:38:21.960Z,2.22
2023-01-11T06:41:00.271Z,3.33
2023-01-11T06:43:27.473Z,3.80
2023-01-11T06:45:54.245Z,4.15
2023-01-11T06:48:21.382Z,5.45
2023-01-11T06:50:52.563Z,4.07
2023-01-11T06:53:19.257Z,3.60
2023-01-11T06:55:49.612Z,3.03
2023-01-11T06:58:16.161Z,2.08
2023-01-11T07:00:42.657Z,2.55
2023-01-11T07:03:10.872Z,1.88
2023-01-11T07:05:37.409Z,2.00
2023-01-11T07:08:03.927Z,1.60
2023-01-11T07:10:30.405Z,1.92
2023-01-11T07:12:56.958Z,1.30
2023-01-11T07:15:23.415Z,1.58
2023-01-11T07:17:54.787Z,1.17
2023-01-11T07:20:21.368Z,1.08
2023-01-11T07:22:47.769Z,1.42
2023-01-11T07:25:14.218Z,2.00
2023-01-11T07:27:40.647Z,2.00
2023-01-11T07:30:09.780Z,1.10
2023-01-11T07:32:36.432Z,1.25
2023-01-11T07:35:02.949Z,0.95
2023-01-11T07:37:32.611Z,0.93
2023-01-11T07:39:59.071Z,1.13
2023-01-11T07:42:44.072Z,1.15
2023-01-11T07:45:10.939Z,0.93
2023-01-11T07:47:37.367Z,1.08
2023-01-11T07:50:04.045Z,1.10
2023-01-11T07:52:30.545Z,1.13
2023-01-11T07:55:02.176Z,1.05
2023-01-11T07:57:29.984Z,0.80
2023-01-11T07:59:56.576Z,0.93
2023-01-11T08:02:23.086Z,0.80
2023-01-11T08:04:49.589Z,0.88
2023-01-11T08:07:16.006Z,0.88
2023-01-11T08:09:42.433Z,1.08
2023-01-11T08:12:27.441Z,1.15
2023-01-11T08:14:53.886Z,0.80
2023-01-11T08:17:20.303Z,0.90
2023-01-11T08:19:46.732Z,0.70
2023-01-11T08:22:13.212Z,0.70
2023-01-11T08:24:39.754Z,0.77
2023-01-11T08:27:06.249Z,0.70
2023-01-11T08:29:32.671Z,0.70
2023-01-11T08:32:00.535Z,0.63
2023-01-11T08:34:29.091Z,0.68
2023-01-11T08:36:57.523Z,0.60
2023-01-11T08:39:24.676Z,0.70
2023-01-11T08:41:51.085Z,0.47
2023-01-11T08:44:29.094Z,0.47
2023-01-11T08:46:59.643Z,0.65
2023-01-11T08:49:26.076Z,0.50
2023-01-11T08:51:52.456Z,0.47
2023-01-11T08:54:18.862Z,0.50
2023-01-11T08:56:45.269Z,0.60
2023-01-11T08:59:11.736Z,0.70
2023-01-11T09:01:38.443Z,0.65
2023-01-11T09:04:15.571Z,0.50
2023-01-11T09:06:49.770Z,0.60
2023-01-11T09:09:16.218Z,1.02
2023-01-11T09:11:54.695Z,0.57
2023-01-11T09:14:21.687Z,0.50
2023-01-11T09:16:48.793Z,0.47
2023-01-11T09:19:15.275Z,0.50
2023-01-11T09:21:41.839Z,0.60
2023-01-11T09:24:08.359Z,0.55
2023-01-11T09:26:35.697Z,0.52
2023-01-11T09:29:02.222Z,0.70
2023-01-11T09:31:28.742Z,0.50
2023-01-11T09:33:55.281Z,0.52
2023-01-11T09:36:23.542Z,0.70
2023-01-11T09:38:52.665Z,0.70
2023-01-11T09:41:33.841Z,0.60
2023-01-11T09:44:16.274Z,0.70
2023-01-11T09:46:46.342Z,0.73
2023-01-11T09:49:23.718Z,0.93
2023-01-11T09:51:51.381Z,0.82
2023-01-11T09:54:20.973Z,0.85
2023-01-11T09:56:54.630Z,0.88
2023-01-11T09:59:27.473Z,0.75
2023-01-11T10:02:01.579Z,0.73
2023-01-11T10:04:45.845Z,0.50
2023-01-11T10:07:22.318Z,0.55
2023-01-11T10:18:44.520Z,0.50
2023-01-11T10:19:35.824Z,0.60
2023-01-11T10:22:18.045Z,0.57
2023-01-11T10:24:59.070Z,0.77
2023-01-11T10:27:30.771Z,0.52
2023-01-11T10:30:12.862Z,0.57
2023-01-11T10:33:14.802Z,0.70
2023-01-11T10:35:59.361Z,0.63
2023-01-11T10:39:11.855Z,0.50
2023-01-11T10:41:57.202Z,0.47
2023-01-11T10:44:31.378Z,0.55
2023-01-11T10:46:59.677Z,0.57
2023-01-11T10:50:03.550Z,0.63
2023-01-11T10:52:41.983Z,0.68
2023-01-11T10:55:13.342Z,0.70
2023-01-11T10:58:02.832Z,0.60
2023-01-11T11:00:47.393Z,0.60
2023-01-11T11:03:38.956Z,0.47
2023-01-11T11:06:17.710Z,0.60
2023-01-11T11:08:55.513Z,0.63
2023-01-11T11:11:31.237Z,0.52
2023-01-11T11:14:12.313Z,0.60
2023-01-11T11:16:51.340Z,0.50
2023-01-11T11:19:22.307Z,0.60
2023-01-11T11:21:49.637Z,0.90
2023-01-11T11:24:32.986Z,1.20
2023-01-11T11:27:21.748Z,1.33
2023-01-11T11:29:56.870Z,1.13
2023-01-11T11:32:27.162Z,0.93
2023-01-11T11:34:53.732Z,0.88
2023-01-11T11:37:26.406Z,0.80
2023-01-11T11:39:53.847Z,0.82
2023-01-11T11:42:21.850Z,0.63
2023-01-11T11:45:14.184Z,0.65
2023-01-11T11:47:40.627Z,1.00
2023-01-11T11:50:43.700Z,0.40
2023-01-11T11:53:27.598Z,0.68
2023-01-11T11:55:54.692Z,0.68
2023-01-11T11:58:23.150Z,1.25
2023-01-11T12:00:51.062Z,0.77
2023-01-11T12:03:30.072Z,0.82
2023-01-11T12:06:02.207Z,0.70
2023-01-11T12:08:30.072Z,0.63
2023-01-11T12:10:59.071Z,0.63
2023-01-11T12:13:34.004Z,0.75
2023-01-11T12:16:03.096Z,0.80
2023-01-11T12:18:42.338Z,0.60
2023-01-11T12:21:31.920Z,0.47
2023-01-11T12:24:07.773Z,0.40
2023-01-11T12:26:38.612Z,0.45
2023-01-11T12:29:14.017Z,0.45
2023-01-11T12:31:51.620Z,0.43
2023-01-11T12:34:35.624Z,0.60
2023-01-11T12:37:05.040Z,0.40
2023-01-11T12:39:43.649Z,0.60
2023-01-11T12:42:38.639Z,0.50
2023-01-11T12:45:29.984Z,0.47
2023-01-11T12:48:05.645Z,0.38
2023-01-11T12:50:59.907Z,0.50
2023-01-11T12:53:51.029Z,0.52
2023-01-11T12:56:39.468Z,0.50
2023-01-11T12:59:26.059Z,0.43
2023-01-11T13:02:05.911Z,0.70
2023-01-11T13:04:43.845Z,0.77
2023-01-11T13:07:33.996Z,0.63
2023-01-11T13:10:24.080Z,0.63
2023-01-11T13:13:02.685Z,0.40
2023-01-11T13:15:34.322Z,0.55
2023-01-11T13:18:22.781Z,0.60
2023-01-11T13:21:02.543Z,0.70
2023-01-11T13:23:42.785Z,0.38
2023-01-11T13:26:32.063Z,0.82
2023-01-11T13:29:05.160Z,0.50
2023-01-11T13:31:35.388Z,0.60
2023-01-11T13:34:06.952Z,0.50
2023-01-11T13:36:40.892Z,0.40
2023-01-11T13:39:17.737Z,0.30
2023-01-11T13:41:55.763Z,0.50
2023-01-11T13:44:27.294Z,0.60
2023-01-11T13:47:10.867Z,0.30
2023-01-11T13:49:45.942Z,0.30
2023-01-11T13:52:17.842Z,0.30
2023-01-11T13:54:58.840Z,0.40
2023-01-11T13:57:42.351Z,0.30
2023-01-11T14:00:32.768Z,0.40
2023-01-11T14:03:09.850Z,0.40
2023-01-11T14:05:59.226Z,0.30
2023-01-11T14:08:44.300Z,0.40
2023-01-11T14:11:28.988Z,0.30
2023-01-11T14:14:15.340Z,0.40
2023-01-11T14:17:07.478Z,0.38
2023-01-11T14:20:12.385Z,0.40
2023-01-11T14:23:13.405Z,0.50
2023-01-11T14:26:08.630Z,0.40
2023-01-11T14:28:52.128Z,0.30
2023-01-11T14:31:39.990Z,0.60
2023-01-11T14:34:19.985Z,0.50
2023-01-11T14:37:09.040Z,0.77
2023-01-11T14:39:56.641Z,0.68
2023-01-11T14:42:33.601Z,0.57
2023-01-11T14:45:13.296Z,0.65
2023-01-11T14:48:01.312Z,0.50
2023-01-11T14:50:40.858Z,0.55
2023-01-11T14:53:10.108Z,0.50
2023-01-11T14:55:45.041Z,0.40
2023-01-11T14:58:28.961Z,0.68
2023-01-11T15:00:55.368Z,0.80
2023-01-11T15:03:21.706Z,0.70
2023-01-11T15:06:14.655Z,0.88
2023-01-11T15:08:42.877Z,1.40
2023-01-11T15:11:22.953Z,1.00
2023-01-11T15:13:58.214Z,1.23
2023-01-11T15:16:47.950Z,1.30
2023-01-11T15:19:26.541Z,1.50
2023-01-11T15:21:55.621Z,1.50
2023-01-11T15:24:35.916Z,1.42
2023-01-11T15:27:02.839Z,1.55
2023-01-11T15:29:32.343Z,1.40
2023-01-11T15:32:01.987Z,1.17
2023-01-11T15:34:39.621Z,1.20
2023-01-11T15:37:43.640Z,1.17
2023-01-11T15:40:16.475Z,1.27
2023-01-11T15:43:01.272Z,1.30
2023-01-11T15:46:12.793Z,1.20
2023-01-11T15:49:19.482Z,1.20
2023-01-11T15:52:19.426Z,1.13
2023-01-11T15:55:19.884Z,1.40
2023-01-11T15:58:25.447Z,1.45
2023-01-11T16:00:58.799Z,1.17
2023-01-11T16:03:50.033Z,1.10
2023-01-11T16:06:30.092Z,0.98
2023-01-11T16:09:15.257Z,1.00
2023-01-11T16:11:54.416Z,1.00
2023-01-11T16:14:32.485Z,1.40
2023-01-11T16:16:59.091Z,1.38
2023-01-11T16:19:29.141Z,1.20
2023-01-11T16:21:59.016Z,1.23
2023-01-11T16:24:29.310Z,1.20
2023-01-11T16:27:23.154Z,1.45
2023-01-11T16:29:50.733Z,1.58
2023-01-11T16:32:32.584Z,1.60
2023-01-11T16:35:00.997Z,1.50
2023-01-11T16:37:37.646Z,1.67
2023-01-11T16:40:10.242Z,1.63
2023-01-11T16:42:42.702Z,1.70
2023-01-11T16:45:14.887Z,2.00
2023-01-11T16:47:41.313Z,1.70
2023-01-11T16:50:13.673Z,1.90
2023-01-11T16:52:53.436Z,1.65
2023-01-11T16:55:24.721Z,1.73
2023-01-11T16:57:57.570Z,1.75
2023-01-11T17:00:32.188Z,1.60
2023-01-11T17:03:20.202Z,2.05
2023-01-11T17:05:58.898Z,1.77
2023-01-11T17:08:34.819Z,1.90
2023-01-11T17:11:21.158Z,1.90
2023-01-11T17:13:57.034Z,2.25
2023-01-11T17:16:29.348Z,2.03
2023-01-11T17:18:58.907Z,2.03
2023-01-11T17:21:27.470Z,2.22
2023-01-11T17:23:58.441Z,2.22
2023-01-11T17:26:31.229Z,2.17
2023-01-11T17:28:58.805Z,2.28
2023-01-11T17:31:27.887Z,2.33
2023-01-11T17:34:08.419Z,2.97
2023-01-11T17:36:35.477Z,3.17
2023-01-11T17:39:02.907Z,3.35
2023-01-11T17:41:47.843Z,3.55
2023-01-11T17:44:35.856Z,3.17
2023-01-11T17:47:03.745Z,3.13
2023-01-11T17:49:32.135Z,3.42
2023-01-11T17:52:07.939Z,2.83
2023-01-11T17:54:34.365Z,2.80
2023-01-11T17:57:01.104Z,1.70
2023-01-11T17:59:29.826Z,1.92
2023-01-11T18:01:59.408Z,1.73
2023-01-11T18:04:27.233Z,2.45
2023-01-11T18:07:15.986Z,2.00
2023-01-11T18:09:47.447Z,2.08
2023-01-11T18:12:20.742Z,1.98
2023-01-11T18:14:55.966Z,2.40
2023-01-11T18:17:39.206Z,2.67
2023-01-11T18:20:14.931Z,2.22
2023-01-11T18:22:43.355Z,2.58
2023-01-11T18:25:34.457Z,2.30
2023-01-11T18:28:22.004Z,3.35
2023-01-11T18:30:54.269Z,3.45
2023-01-11T18:33:23.898Z,2.65
2023-01-11T18:36:01.839Z,2.95
2023-01-11T18:38:33.895Z,3.35
2023-01-11T18:41:24.355Z,2.65
2023-01-11T18:43:51.652Z,2.63
2023-01-11T18:46:18.104Z,2.63
2023-01-11T18:48:44.595Z,2.78
2023-01-11T18:51:15.492Z,2.50
2023-01-11T18:53:42.045Z,2.70
2023-01-11T18:56:08.476Z,2.95
2023-01-11T18:58:34.895Z,3.05
2023-01-11T19:01:01.377Z,3.45
2023-01-11T19:03:27.810Z,3.17
2023-01-11T19:05:54.283Z,3.28
2023-01-11T19:08:21.694Z,3.22
2023-01-11T19:10:50.419Z,3.83
2023-01-11T19:13:19.205Z,3.15
2023-01-11T19:15:46.069Z,3.33
2023-01-11T19:18:12.511Z,3.63
2023-01-11T19:20:40.838Z,4.07
2023-01-11T19:23:07.317Z,4.10
2023-01-11T19:25:33.726Z,3.83
2023-01-11T19:28:02.327Z,4.10
2023-01-11T19:30:28.929Z,3.80
2023-01-11T19:32:55.502Z,3.95
2023-01-11T19:35:23.634Z,3.53
2023-01-11T19:37:50.718Z,3.90
2023-01-11T19:40:19.644Z,4.50
2023-01-11T19:42:47.554Z,4.10
2023-01-11T19:45:14.032Z,4.82
2023-01-11T19:47:40.455Z,5.00
2023-01-11T19:50:08.003Z,4.60
2023-01-11T19:52:34.487Z,4.95
2023-01-11T19:55:00.901Z,4.97
2023-01-11T19:57:27.503Z,5.00
2023-01-11T19:59:53.909Z,4.68
2023-01-11T20:02:21.750Z,4.68
2023-01-11T20:04:49.237Z,4.72
2023-01-11T20:07:15.783Z,4.68
2023-01-11T20:09:42.220Z,4.45
2023-01-11T20:12:10.814Z,4.38
2023-01-11T20:14:38.146Z,4.43
2023-01-11T20:17:04.623Z,4.35
2023-01-11T20:19:31.132Z,4.18
2023-01-11T20:21:57.580Z,4.38
2023-01-11T20:24:28.357Z,4.40
2023-01-11T20:26:55.924Z,4.47
2023-01-11T20:29:22.418Z,4.32
2023-01-11T20:31:49.513Z,4.75
2023-01-11T20:34:17.072Z,4.03
2023-01-11T20:36:44.175Z,4.30
2023-01-11T20:39:11.510Z,3.90
2023-01-11T20:41:46.801Z,3.63
2023-01-11T20:44:15.993Z,3.60
2023-01-11T20:46:43.083Z,4.30
2023-01-11T20:49:09.519Z,4.03
2023-01-11T20:51:36.147Z,4.10
2023-01-11T20:54:04.233Z,4.85
2023-01-11T20:56:32.963Z,3.75
2023-01-11T20:59:01.444Z,3.25
2023-01-11T21:01:28.548Z,3.25
2023-01-11T21:03:57.904Z,3.17
2023-01-11T21:06:24.345Z,3.50
2023-01-11T21:08:57.503Z,3.13
2023-01-11T21:11:24.423Z,3.57
2023-01-11T21:13:52.879Z,3.27
2023-01-11T21:16:20.073Z,3.17
2023-01-11T21:18:46.491Z,3.13
2023-01-11T21:21:14.242Z,3.10
2023-01-11T21:23:40.807Z,2.93
2023-01-11T21:26:14.728Z,3.30
2023-01-11T21:28:42.063Z,3.60
2023-01-11T21:31:10.111Z,3.00
2023-01-11T21:33:37.555Z,3.47
2023-01-11T21:36:10.769Z,3.23
2023-01-11T21:38:37.187Z,3.57
2023-01-11T21:41:11.785Z,3.40
2023-01-11T21:43:38.251Z,3.40
2023-01-11T21:46:06.175Z,2.97
2023-01-11T21:48:33.319Z,3.23
2023-01-11T21:51:00.142Z,3.17
2023-01-11T21:53:31.081Z,3.00
2023-01-11T21:56:05.351Z,2.90
2023-01-11T21:58:31.935Z,3.77
2023-01-11T22:00:58.711Z,3.43
2023-01-11T22:03:28.754Z,2.93
2023-01-11T22:06:02.002Z,2.67
2023-01-11T22:08:28.661Z,2.57
2023-01-11T22:10:59.100Z,3.43
2023-01-11T22:13:27.877Z,2.90
2023-01-11T22:15:54.355Z,3.23
2023-01-11T22:18:22.179Z,2.70
2023-01-11T22:20:49.553Z,2.70
2023-01-11T22:23:15.969Z,2.53
2023-01-11T22:25:42.396Z,3.07
2023-01-11T22:28:08.805Z,2.40
2023-01-11T22:30:35.226Z,3.00
2023-01-11T22:33:01.684Z,2.60
2023-01-11T22:35:28.136Z,3.08
2023-01-11T22:37:54.537Z,2.45
2023-01-11T22:40:20.940Z,2.80
2023-01-11T22:42:47.371Z,3.13
2023-01-11T22:45:13.830Z,2.72
2023-01-11T22:47:40.240Z,2.70
2023-01-11T22:50:06.945Z,2.70
2023-01-11T22:52:33.439Z,3.10
2023-01-11T22:54:59.877Z,2.63
2023-01-11T22:57:26.285Z,2.50
2023-01-11T22:59:52.670Z,3.23
2023-01-11T23:02:19.096Z,2.60
2023-01-11T23:04:45.504Z,2.70
2023-01-11T23:07:11.941Z,2.60
2023-01-11T23:09:38.349Z,2.73
2023-01-11T23:12:24.532Z,2.80
2023-01-11T23:14:50.946Z,2.77
2023-01-11T23:17:18.964Z,2.10
2023-01-11T23:19:45.543Z,2.70
2023-01-11T23:22:15.220Z,2.67
2023-01-11T23:24:42.135Z,2.33
2023-01-11T23:27:08.636Z,2.60
2023-01-11T23:29:35.558Z,2.30
2023-01-11T23:32:02.094Z,2.80
2023-01-11T23:34:28.600Z,2.67
2023-01-11T23:36:55.068Z,2.20
2023-01-11T23:39:21.542Z,2.60
2023-01-11T23:42:06.588Z,2.13
2023-01-11T23:44:33.109Z,3.00
2023-01-11T23:47:18.127Z,2.10
2023-01-11T23:49:44.679Z,2.40
2023-01-11T23:52:11.455Z,2.00
2023-01-11T23:54:37.950Z,1.50
2023-01-11T23:57:04.426Z,1.27
2023-01-11T23:59:31.185Z,1.47
